sensor_id;sensor_type;location;lat;lon;timestamp;pressure;altitude;pressure_sealevel;temperature;humidity
62150;BME280;48134;53.586;10.610;2023-09-30T00:01:59;101451.50;;;11.57;100.00
62150;BME280;48134;53.586;10.610;2023-09-30T00:04:33;101452.53;;;11.51;100.00
62150;BME280;48134;53.586;10.610;2023-09-30T00:07:01;101448.50;;;11.59;100.00
62150;BME280;48134;53.586;10.610;2023-09-30T00:09:35;101449.00;;;11.51;100.00
62150;BME280;48134;53.586;10.610;2023-09-30T00:12:03;101461.03;;;11.55;100.00
62150;BME280;48134;53.586;10.610;2023-09-30T00:14:36;101459.09;;;11.50;100.00
62150;BME280;48134;53.586;10.610;2023-09-30T00:17:05;101470.25;;;11.44;100.00
62150;BME280;48134;53.586;10.610;2023-09-30T00:19:39;101461.56;;;11.52;100.00
62150;BME280;48134;53.586;10.610;2023-09-30T00:22:12;101463.19;;;11.53;100.00
62150;BME280;48134;53.586;10.610;2023-09-30T00:24:41;101467.28;;;11.55;100.00
62150;BME280;48134;53.586;10.610;2023-09-30T00:27:09;101475.19;;;11.52;100.00
62150;BME280;48134;53.586;10.610;2023-09-30T00:29:42;101475.69;;;11.38;100.00
62150;BME280;48134;53.586;10.610;2023-09-30T00:32:15;101479.53;;;11.48;100.00
62150;BME280;48134;53.586;10.610;2023-09-30T00:34:50;101487.91;;;11.36;100.00
62150;BME280;48134;53.586;10.610;2023-09-30T00:37:20;101483.28;;;11.36;100.00
62150;BME280;48134;53.586;10.610;2023-09-30T00:39:54;101483.03;;;11.38;100.00
62150;BME280;48134;53.586;10.610;2023-09-30T00:42:22;101490.41;;;11.43;100.00
62150;BME280;48134;53.586;10.610;2023-09-30T00:44:56;101489.03;;;11.40;100.00
62150;BME280;48134;53.586;10.610;2023-09-30T00:47:29;101492.88;;;11.44;100.00
62150;BME280;48134;53.586;10.610;2023-09-30T00:50:05;101489.84;;;11.35;100.00
62150;BME280;48134;53.586;10.610;2023-09-30T00:52:36;101484.97;;;11.43;100.00
62150;BME280;48134;53.586;10.610;2023-09-30T00:55:06;101481.13;;;11.38;100.00
62150;BME280;48134;53.586;10.610;2023-09-30T00:57:40;101490.06;;;11.29;100.00
62150;BME280;48134;53.586;10.610;2023-09-30T01:00:14;101491.69;;;11.25;100.00
62150;BME280;48134;53.586;10.610;2023-09-30T01:02:43;101490.34;;;11.27;100.00
62150;BME280;48134;53.586;10.610;2023-09-30T01:05:18;101496.88;;;11.26;100.00
62150;BME280;48134;53.586;10.610;2023-09-30T01:07:46;101488.38;;;11.22;100.00
62150;BME280;48134;53.586;10.610;2023-09-30T01:10:20;101489.78;;;11.25;100.00
62150;BME280;48134;53.586;10.610;2023-09-30T01:12:48;101496.56;;;11.22;100.00
62150;BME280;48134;53.586;10.610;2023-09-30T01:15:21;101499.28;;;11.22;100.00
62150;BME280;48134;53.586;10.610;2023-09-30T01:17:54;101504.97;;;11.11;100.00
62150;BME280;48134;53.586;10.610;2023-09-30T01:20:29;101500.59;;;11.10;100.00
62150;BME280;48134;53.586;10.610;2023-09-30T01:23:04;101500.84;;;11.08;100.00
62150;BME280;48134;53.586;10.610;2023-09-30T01:25:37;101508.81;;;11.15;100.00
62150;BME280;48134;53.586;10.610;2023-09-30T01:28:08;101498.44;;;11.12;100.00
62150;BME280;48134;53.586;10.610;2023-09-30T01:30:37;101494.03;;;11.05;100.00
62150;BME280;48134;53.586;10.610;2023-09-30T01:33:10;101509.03;;;11.08;100.00
62150;BME280;48134;53.586;10.610;2023-09-30T01:35:43;101505.97;;;10.99;100.00
62150;BME280;48134;53.586;10.610;2023-09-30T01:38:13;101515.00;;;11.10;100.00
62150;BME280;48134;53.586;10.610;2023-09-30T01:40:46;101511.66;;;10.98;100.00
62150;BME280;48134;53.586;10.610;2023-09-30T01:43:19;101518.81;;;11.04;100.00
62150;BME280;48134;53.586;10.610;2023-09-30T01:45:52;101514.38;;;10.98;100.00
62150;BME280;48134;53.586;10.610;2023-09-30T01:48:21;101514.16;;;10.99;100.00
62150;BME280;48134;53.586;10.610;2023-09-30T01:50:54;101517.94;;;10.98;100.00
62150;BME280;48134;53.586;10.610;2023-09-30T01:53:28;101527.16;;;10.92;100.00
62150;BME280;48134;53.586;10.610;2023-09-30T01:56:02;101517.81;;;10.78;100.00
62150;BME280;48134;53.586;10.610;2023-09-30T01:58:35;101524.69;;;10.91;100.00
62150;BME280;48134;53.586;10.610;2023-09-30T02:01:08;101512.69;;;10.86;100.00
62150;BME280;48134;53.586;10.610;2023-09-30T02:03:37;101517.53;;;10.79;100.00
62150;BME280;48134;53.586;10.610;2023-09-30T02:06:05;101527.41;;;10.85;100.00
62150;BME280;48134;53.586;10.610;2023-09-30T02:08:34;101533.16;;;10.94;100.00
62150;BME280;48134;53.586;10.610;2023-09-30T02:11:03;101525.81;;;10.95;100.00
62150;BME280;48134;53.586;10.610;2023-09-30T02:13:32;101534.34;;;11.03;100.00
62150;BME280;48134;53.586;10.610;2023-09-30T02:16:11;101537.53;;;10.95;100.00
62150;BME280;48134;53.586;10.610;2023-09-30T02:18:40;101530.19;;;10.96;100.00
62150;BME280;48134;53.586;10.610;2023-09-30T02:21:13;101534.50;;;10.92;100.00
62150;BME280;48134;53.586;10.610;2023-09-30T02:23:43;101529.69;;;11.04;100.00
62150;BME280;48134;53.586;10.610;2023-09-30T02:26:19;101525.59;;;11.01;100.00
62150;BME280;48134;53.586;10.610;2023-09-30T02:28:55;101521.47;;;10.99;100.00
62150;BME280;48134;53.586;10.610;2023-09-30T02:31:28;101534.84;;;11.00;100.00
62150;BME280;48134;53.586;10.610;2023-09-30T02:34:01;101532.47;;;11.09;100.00
62150;BME280;48134;53.586;10.610;2023-09-30T02:36:35;101534.56;;;11.02;100.00
62150;BME280;48134;53.586;10.610;2023-09-30T02:39:06;101537.81;;;10.99;100.00
62150;BME280;48134;53.586;10.610;2023-09-30T02:41:35;101545.19;;;10.98;100.00
62150;BME280;48134;53.586;10.610;2023-09-30T02:44:05;101541.63;;;10.98;100.00
62150;BME280;48134;53.586;10.610;2023-09-30T02:46:38;101543.97;;;10.84;100.00
62150;BME280;48134;53.586;10.610;2023-09-30T02:49:06;101537.72;;;10.83;100.00
62150;BME280;48134;53.586;10.610;2023-09-30T02:51:40;101546.97;;;10.82;100.00
62150;BME280;48134;53.586;10.610;2023-09-30T02:54:09;101548.06;;;10.81;100.00
62150;BME280;48134;53.586;10.610;2023-09-30T02:56:47;101539.31;;;10.79;100.00
62150;BME280;48134;53.586;10.610;2023-09-30T02:59:15;101530.84;;;10.76;100.00
62150;BME280;48134;53.586;10.610;2023-09-30T03:01:50;101530.59;;;10.77;100.00
62150;BME280;48134;53.586;10.610;2023-09-30T03:04:23;101531.56;;;10.66;100.00
62150;BME280;48134;53.586;10.610;2023-09-30T03:06:54;101540.53;;;10.61;100.00
62150;BME280;48134;53.586;10.610;2023-09-30T03:09:29;101543.72;;;10.53;100.00
62150;BME280;48134;53.586;10.610;2023-09-30T03:12:04;101548.91;;;10.54;100.00
62150;BME280;48134;53.586;10.610;2023-09-30T03:14:32;101555.22;;;10.60;100.00
62150;BME280;48134;53.586;10.610;2023-09-30T03:17:06;101555.69;;;10.52;100.00
62150;BME280;48134;53.586;10.610;2023-09-30T03:19:43;101566.22;;;10.43;100.00
62150;BME280;48134;53.586;10.610;2023-09-30T03:22:16;101564.63;;;10.47;100.00
62150;BME280;48134;53.586;10.610;2023-09-30T03:24:51;101557.47;;;10.41;100.00
62150;BME280;48134;53.586;10.610;2023-09-30T03:27:26;101551.22;;;10.41;100.00
62150;BME280;48134;53.586;10.610;2023-09-30T03:29:54;101553.50;;;10.27;100.00
62150;BME280;48134;53.586;10.610;2023-09-30T03:32:22;101562.53;;;10.32;100.00
62150;BME280;48134;53.586;10.610;2023-09-30T03:34:56;101566.06;;;10.33;100.00
62150;BME280;48134;53.586;10.610;2023-09-30T03:37:31;101558.53;;;10.35;100.00
62150;BME280;48134;53.586;10.610;2023-09-30T03:40:01;101564.19;;;10.33;100.00
62150;BME280;48134;53.586;10.610;2023-09-30T03:42:41;101568.13;;;10.43;100.00
62150;BME280;48134;53.586;10.610;2023-09-30T03:45:15;101561.59;;;10.44;100.00
62150;BME280;48134;53.586;10.610;2023-09-30T03:47:44;101556.13;;;10.38;100.00
62150;BME280;48134;53.586;10.610;2023-09-30T03:50:17;101562.06;;;10.35;100.00
62150;BME280;48134;53.586;10.610;2023-09-30T03:52:45;101554.91;;;10.29;100.00
62150;BME280;48134;53.586;10.610;2023-09-30T03:55:16;101551.50;;;10.39;100.00
62150;BME280;48134;53.586;10.610;2023-09-30T03:57:52;101552.19;;;10.29;100.00
62150;BME280;48134;53.586;10.610;2023-09-30T04:00:20;101553.81;;;10.30;100.00
62150;BME280;48134;53.586;10.610;2023-09-30T04:02:49;101561.47;;;10.33;100.00
62150;BME280;48134;53.586;10.610;2023-09-30T04:05:20;101560.44;;;10.34;100.00
62150;BME280;48134;53.586;10.610;2023-09-30T04:07:58;101567.97;;;10.32;100.00
62150;BME280;48134;53.586;10.610;2023-09-30T04:10:27;101562.75;;;10.26;100.00
62150;BME280;48134;53.586;10.610;2023-09-30T04:13:02;101568.34;;;10.36;100.00
62150;BME280;48134;53.586;10.610;2023-09-30T04:15:35;101564.72;;;10.30;100.00
62150;BME280;48134;53.586;10.610;2023-09-30T04:18:09;101564.06;;;10.23;100.00
62150;BME280;48134;53.586;10.610;2023-09-30T04:20:38;101558.34;;;10.19;100.00
62150;BME280;48134;53.586;10.610;2023-09-30T04:23:12;101561.59;;;10.21;100.00
62150;BME280;48134;53.586;10.610;2023-09-30T04:25:47;101572.75;;;10.20;100.00
62150;BME280;48134;53.586;10.610;2023-09-30T04:28:21;101565.16;;;10.22;100.00
62150;BME280;48134;53.586;10.610;2023-09-30T04:30:51;101573.06;;;10.24;100.00
62150;BME280;48134;53.586;10.610;2023-09-30T04:33:25;101564.06;;;10.23;100.00
62150;BME280;48134;53.586;10.610;2023-09-30T04:35:53;101564.31;;;10.21;100.00
62150;BME280;48134;53.586;10.610;2023-09-30T04:38:21;101572.19;;;10.18;100.00
62150;BME280;48134;53.586;10.610;2023-09-30T04:40:56;101573.38;;;10.05;100.00
62150;BME280;48134;53.586;10.610;2023-09-30T04:43:24;101575.66;;;10.13;100.00
62150;BME280;48134;53.586;10.610;2023-09-30T04:45:56;101579.78;;;10.16;100.00
62150;BME280;48134;53.586;10.610;2023-09-30T04:48:25;101591.44;;;10.11;100.00
62150;BME280;48134;53.586;10.610;2023-09-30T04:50:53;101583.34;;;10.16;100.00
62150;BME280;48134;53.586;10.610;2023-09-30T04:53:27;101596.34;;;10.14;100.00
62150;BME280;48134;53.586;10.610;2023-09-30T04:55:57;101603.44;;;10.15;100.00
62150;BME280;48134;53.586;10.610;2023-09-30T04:58:26;101604.50;;;10.14;100.00
62150;BME280;48134;53.586;10.610;2023-09-30T05:01:01;101598.25;;;10.14;100.00
62150;BME280;48134;53.586;10.610;2023-09-30T05:03:29;101600.13;;;10.13;100.00
62150;BME280;48134;53.586;10.610;2023-09-30T05:05:58;101601.59;;;10.21;100.00
62150;BME280;48134;53.586;10.610;2023-09-30T05:08:26;101596.34;;;10.14;100.00
62150;BME280;48134;53.586;10.610;2023-09-30T05:10:56;101605.66;;;10.18;100.00
62150;BME280;48134;53.586;10.610;2023-09-30T05:13:30;101609.19;;;10.19;100.00
62150;BME280;48134;53.586;10.610;2023-09-30T05:16:00;101602.81;;;10.30;100.00
62150;BME280;48134;53.586;10.610;2023-09-30T05:18:30;101601.00;;;10.19;100.00
62150;BME280;48134;53.586;10.610;2023-09-30T05:20:58;101604.13;;;10.28;100.00
62150;BME280;48134;53.586;10.610;2023-09-30T05:23:32;101587.13;;;10.37;100.00
62150;BME280;48134;53.586;10.610;2023-09-30T05:26:01;101593.78;;;10.30;100.00
62150;BME280;48134;53.586;10.610;2023-09-30T05:28:35;101596.25;;;10.31;100.00
62150;BME280;48134;53.586;10.610;2023-09-30T05:31:09;101609.56;;;10.28;100.00
62150;BME280;48134;53.586;10.610;2023-09-30T05:33:42;101616.41;;;10.30;100.00
62150;BME280;48134;53.586;10.610;2023-09-30T05:36:15;101609.84;;;10.31;100.00
62150;BME280;48134;53.586;10.610;2023-09-30T05:38:49;101623.81;;;10.35;100.00
62150;BME280;48134;53.586;10.610;2023-09-30T05:41:22;101617.41;;;10.46;100.00
62150;BME280;48134;53.586;10.610;2023-09-30T05:43:52;101606.72;;;10.40;100.00
62150;BME280;48134;53.586;10.610;2023-09-30T05:46:26;101619.84;;;10.43;100.00
62150;BME280;48134;53.586;10.610;2023-09-30T05:48:55;101620.06;;;10.41;100.00
62150;BME280;48134;53.586;10.610;2023-09-30T05:51:23;101616.69;;;10.34;100.00
62150;BME280;48134;53.586;10.610;2023-09-30T05:53:56;101624.44;;;10.42;100.00
62150;BME280;48134;53.586;10.610;2023-09-30T05:56:24;101631.38;;;10.33;100.00
62150;BME280;48134;53.586;10.610;2023-09-30T05:58:55;101633.28;;;10.32;100.00
62150;BME280;48134;53.586;10.610;2023-09-30T06:01:23;101626.19;;;10.31;100.00
62150;BME280;48134;53.586;10.610;2023-09-30T06:03:57;101631.97;;;10.35;100.00
62150;BME280;48134;53.586;10.610;2023-09-30T06:06:30;101628.91;;;10.31;100.00
62150;BME280;48134;53.586;10.610;2023-09-30T06:08:58;101634.19;;;10.38;100.00
62150;BME280;48134;53.586;10.610;2023-09-30T06:11:26;101634.78;;;10.40;100.00
62150;BME280;48134;53.586;10.610;2023-09-30T06:14:01;101646.53;;;10.46;100.00
62150;BME280;48134;53.586;10.610;2023-09-30T06:16:33;101649.53;;;10.49;100.00
62150;BME280;48134;53.586;10.610;2023-09-30T06:19:06;101663.16;;;10.49;100.00
62150;BME280;48134;53.586;10.610;2023-09-30T06:21:41;101654.75;;;10.51;100.00
62150;BME280;48134;53.586;10.610;2023-09-30T06:24:09;101655.63;;;10.57;100.00
62150;BME280;48134;53.586;10.610;2023-09-30T06:26:37;101663.53;;;10.58;100.00
62150;BME280;48134;53.586;10.610;2023-09-30T06:29:07;101659.72;;;10.59;100.00
62150;BME280;48134;53.586;10.610;2023-09-30T06:31:40;101671.44;;;10.60;100.00
62150;BME280;48134;53.586;10.610;2023-09-30T06:34:13;101663.13;;;10.71;100.00
62150;BME280;48134;53.586;10.610;2023-09-30T06:36:42;101674.84;;;10.72;100.00
62150;BME280;48134;53.586;10.610;2023-09-30T06:39:15;101682.22;;;10.77;100.00
62150;BME280;48134;53.586;10.610;2023-09-30T06:41:49;101674.69;;;10.84;100.00
62150;BME280;48134;53.586;10.610;2023-09-30T06:44:19;101677.31;;;10.74;100.00
62150;BME280;48134;53.586;10.610;2023-09-30T06:46:47;101682.34;;;10.87;100.00
62150;BME280;48134;53.586;10.610;2023-09-30T06:49:17;101678.03;;;10.91;100.00
62150;BME280;48134;53.586;10.610;2023-09-30T06:51:50;101687.09;;;10.97;100.00
62150;BME280;48134;53.586;10.610;2023-09-30T06:54:18;101693.34;;;10.97;100.00
62150;BME280;48134;53.586;10.610;2023-09-30T06:56:52;101695.19;;;10.92;100.00
62150;BME280;48134;53.586;10.610;2023-09-30T06:59:27;101693.34;;;10.97;100.00
62150;BME280;48134;53.586;10.610;2023-09-30T07:01:55;101696.66;;;11.04;100.00
62150;BME280;48134;53.586;10.610;2023-09-30T07:04:23;101698.38;;;11.11;100.00
62150;BME280;48134;53.586;10.610;2023-09-30T07:06:53;101704.38;;;11.13;100.00
62150;BME280;48134;53.586;10.610;2023-09-30T07:09:26;101711.56;;;11.24;100.00
62150;BME280;48134;53.586;10.610;2023-09-30T07:11:59;101716.78;;;11.31;100.00
62150;BME280;48134;53.586;10.610;2023-09-30T07:14:29;101704.34;;;11.40;100.00
62150;BME280;48134;53.586;10.610;2023-09-30T07:17:03;101715.56;;;11.44;100.00
62150;BME280;48134;53.586;10.610;2023-09-30T07:19:36;101713.69;;;11.49;100.00
62150;BME280;48134;53.586;10.610;2023-09-30T07:22:10;101708.84;;;11.56;100.00
62150;BME280;48134;53.586;10.610;2023-09-30T07:24:38;101711.81;;;11.55;100.00
62150;BME280;48134;53.586;10.610;2023-09-30T07:27:12;101716.09;;;11.78;100.00
62150;BME280;48134;53.586;10.610;2023-09-30T07:29:46;101711.75;;;11.82;100.00
62150;BME280;48134;53.586;10.610;2023-09-30T07:32:16;101719.66;;;11.84;100.00
62150;BME280;48134;53.586;10.610;2023-09-30T07:34:44;101719.75;;;11.94;100.00
62150;BME280;48134;53.586;10.610;2023-09-30T07:37:13;101724.34;;;11.94;100.00
62150;BME280;48134;53.586;10.610;2023-09-30T07:39:41;101724.63;;;11.92;100.00
62150;BME280;48134;53.586;10.610;2023-09-30T07:42:10;101727.09;;;11.94;100.00
62150;BME280;48134;53.586;10.610;2023-09-30T07:44:38;101726.63;;;12.02;100.00
62150;BME280;48134;53.586;10.610;2023-09-30T07:47:12;101729.94;;;12.09;100.00
62150;BME280;48134;53.586;10.610;2023-09-30T07:49:46;101735.34;;;12.04;100.00
62150;BME280;48134;53.586;10.610;2023-09-30T07:52:20;101741.16;;;12.18;100.00
62150;BME280;48134;53.586;10.610;2023-09-30T07:54:53;101743.84;;;12.07;100.00
62150;BME280;48134;53.586;10.610;2023-09-30T07:57:27;101743.38;;;12.21;100.00
62150;BME280;48134;53.586;10.610;2023-09-30T07:59:55;101740.66;;;12.26;100.00
62150;BME280;48134;53.586;10.610;2023-09-30T08:02:25;101725.97;;;12.32;100.00
62150;BME280;48134;53.586;10.610;2023-09-30T08:04:59;101728.19;;;12.40;100.00
62150;BME280;48134;53.586;10.610;2023-09-30T08:07:27;101729.25;;;12.39;100.00
62150;BME280;48134;53.586;10.610;2023-09-30T08:10:01;101738.63;;;12.59;100.00
62150;BME280;48134;53.586;10.610;2023-09-30T08:12:31;101734.78;;;12.50;100.00
62150;BME280;48134;53.586;10.610;2023-09-30T08:15:06;101743.53;;;12.57;100.00
62150;BME280;48134;53.586;10.610;2023-09-30T08:17:40;101741.38;;;12.64;100.00
62150;BME280;48134;53.586;10.610;2023-09-30T08:20:09;101744.13;;;12.64;100.00
62150;BME280;48134;53.586;10.610;2023-09-30T08:22:43;101744.13;;;12.64;100.00
62150;BME280;48134;53.586;10.610;2023-09-30T08:25:11;101745.50;;;12.67;100.00
62150;BME280;48134;53.586;10.610;2023-09-30T08:27:39;101746.09;;;12.89;100.00
62150;BME280;48134;53.586;10.610;2023-09-30T08:30:13;101748.28;;;12.92;100.00
62150;BME280;48134;53.586;10.610;2023-09-30T08:32:48;101751.88;;;12.98;100.00
62150;BME280;48134;53.586;10.610;2023-09-30T08:35:21;101754.06;;;13.17;100.00
62150;BME280;48134;53.586;10.610;2023-09-30T08:37:49;101757.09;;;13.15;100.00
62150;BME280;48134;53.586;10.610;2023-09-30T08:40:22;101754.34;;;13.10;100.00
62150;BME280;48134;53.586;10.610;2023-09-30T08:42:52;101768.31;;;13.19;100.00
62150;BME280;48134;53.586;10.610;2023-09-30T08:45:27;101773.22;;;13.27;100.00
62150;BME280;48134;53.586;10.610;2023-09-30T08:48:02;101772.41;;;13.32;100.00
62150;BME280;48134;53.586;10.610;2023-09-30T08:50:38;101770.53;;;13.37;100.00
62150;BME280;48134;53.586;10.610;2023-09-30T08:53:09;101767.53;;;13.39;100.00
62150;BME280;48134;53.586;10.610;2023-09-30T08:55:44;101776.28;;;13.51;100.00
62150;BME280;48134;53.586;10.610;2023-09-30T08:58:14;101773.84;;;13.50;100.00
62150;BME280;48134;53.586;10.610;2023-09-30T09:00:49;101776.00;;;13.48;100.00
62150;BME280;48134;53.586;10.610;2023-09-30T09:03:27;101770.56;;;13.63;100.00
62150;BME280;48134;53.586;10.610;2023-09-30T09:06:01;101775.72;;;13.70;100.00
62150;BME280;48134;53.586;10.610;2023-09-30T09:08:29;101772.72;;;13.87;100.00
62150;BME280;48134;53.586;10.610;2023-09-30T09:11:04;101784.22;;;13.89;100.00
62150;BME280;48134;53.586;10.610;2023-09-30T09:13:45;101784.75;;;13.96;100.00
62150;BME280;48134;53.586;10.610;2023-09-30T09:16:16;101783.66;;;13.92;100.00
62150;BME280;48134;53.586;10.610;2023-09-30T09:18:47;101788.28;;;14.07;100.00
62150;BME280;48134;53.586;10.610;2023-09-30T09:21:17;101790.50;;;13.94;100.00
62150;BME280;48134;53.586;10.610;2023-09-30T09:23:47;101797.91;;;13.94;100.00
62150;BME280;48134;53.586;10.610;2023-09-30T09:26:24;101803.91;;;14.06;100.00
62150;BME280;48134;53.586;10.610;2023-09-30T09:28:56;101806.88;;;14.20;100.00
62150;BME280;48134;53.586;10.610;2023-09-30T09:31:26;101804.44;;;14.14;100.00
62150;BME280;48134;53.586;10.610;2023-09-30T09:34:01;101810.44;;;14.21;100.00
62150;BME280;48134;53.586;10.610;2023-09-30T09:36:39;101804.72;;;14.17;100.00
62150;BME280;48134;53.586;10.610;2023-09-30T09:39:07;101800.28;;;14.32;100.00
62150;BME280;48134;53.586;10.610;2023-09-30T09:41:49;101798.63;;;14.41;100.00
62150;BME280;48134;53.586;10.610;2023-09-30T09:44:19;101803.25;;;14.56;100.00
62150;BME280;48134;53.586;10.610;2023-09-30T09:46:53;101807.91;;;14.66;100.00
62150;BME280;48134;53.586;10.610;2023-09-30T09:49:23;101803.53;;;14.54;100.00
62150;BME280;48134;53.586;10.610;2023-09-30T09:51:53;101804.56;;;14.74;100.00
62150;BME280;48134;53.586;10.610;2023-09-30T09:54:22;101804.88;;;14.57;100.00
62150;BME280;48134;53.586;10.610;2023-09-30T09:56:56;101804.03;;;14.61;100.00
62150;BME280;48134;53.586;10.610;2023-09-30T09:59:27;101800.19;;;14.73;100.00
62150;BME280;48134;53.586;10.610;2023-09-30T10:02:02;101802.66;;;14.69;100.00
62150;BME280;48134;53.586;10.610;2023-09-30T10:04:40;101802.91;;;14.83;100.00
62150;BME280;48134;53.586;10.610;2023-09-30T10:07:10;101797.13;;;14.85;100.00
62150;BME280;48134;53.586;10.610;2023-09-30T10:09:44;101806.16;;;14.90;100.00
62150;BME280;48134;53.586;10.610;2023-09-30T10:12:19;101792.69;;;14.94;100.00
62150;BME280;48134;53.586;10.610;2023-09-30T10:14:48;101795.66;;;15.03;100.00
62150;BME280;48134;53.586;10.610;2023-09-30T10:17:57;101805.84;;;14.97;100.00
62150;BME280;48134;53.586;10.610;2023-09-30T10:20:29;101801.09;;;15.08;100.00
62150;BME280;48134;53.586;10.610;2023-09-30T10:23:20;101794.69;;;15.28;100.00
62150;BME280;48134;53.586;10.610;2023-09-30T10:25:49;101795.00;;;15.21;100.00
62150;BME280;48134;53.586;10.610;2023-09-30T10:28:35;101794.44;;;15.24;100.00
62150;BME280;48134;53.586;10.610;2023-09-30T10:31:08;101796.47;;;15.48;100.00
62150;BME280;48134;53.586;10.610;2023-09-30T10:34:19;101807.97;;;15.50;100.00
62150;BME280;48134;53.586;10.610;2023-09-30T10:36:54;101809.94;;;15.84;100.00
62150;BME280;48134;53.586;10.610;2023-09-30T10:39:54;101813.50;;;15.85;100.00
62150;BME280;48134;53.586;10.610;2023-09-30T10:42:47;101816.25;;;15.85;100.00
62150;BME280;48134;53.586;10.610;2023-09-30T10:45:44;101812.22;;;16.06;100.00
62150;BME280;48134;53.586;10.610;2023-09-30T10:48:35;101818.13;;;15.89;100.00
62150;BME280;48134;53.586;10.610;2023-09-30T10:51:18;101814.63;;;15.78;100.00
62150;BME280;48134;53.586;10.610;2023-09-30T10:53:54;101819.44;;;15.57;100.00
62150;BME280;48134;53.586;10.610;2023-09-30T10:56:33;101820.28;;;15.58;100.00
62150;BME280;48134;53.586;10.610;2023-09-30T10:59:01;101820.53;;;15.56;100.00
62150;BME280;48134;53.586;10.610;2023-09-30T11:01:32;101828.50;;;15.58;100.00
62150;BME280;48134;53.586;10.610;2023-09-30T11:04:02;101826.84;;;15.57;100.00
62150;BME280;48134;53.586;10.610;2023-09-30T11:06:39;101825.06;;;15.76;100.00
62150;BME280;48134;53.586;10.610;2023-09-30T11:09:09;101811.84;;;15.84;100.00
62150;BME280;48134;53.586;10.610;2023-09-30T11:11:46;101813.97;;;15.92;100.00
62150;BME280;48134;53.586;10.610;2023-09-30T11:14:22;101820.81;;;15.94;100.00
62150;BME280;48134;53.586;10.610;2023-09-30T11:16:51;101826.31;;;15.94;100.00
62150;BME280;48134;53.586;10.610;2023-09-30T11:19:21;101824.34;;;16.00;100.00
62150;BME280;48134;53.586;10.610;2023-09-30T11:21:55;101818.41;;;15.88;100.00
62150;BME280;48134;53.586;10.610;2023-09-30T11:24:26;101809.50;;;16.01;100.00
62150;BME280;48134;53.586;10.610;2023-09-30T11:26:59;101822.84;;;16.13;100.00
62150;BME280;48134;53.586;10.610;2023-09-30T11:29:29;101818.25;;;16.32;100.00
62150;BME280;48134;53.586;10.610;2023-09-30T11:32:03;101815.91;;;16.21;100.00
62150;BME280;48134;53.586;10.610;2023-09-30T11:34:36;101808.97;;;15.99;100.00
62150;BME280;48134;53.586;10.610;2023-09-30T11:37:10;101803.69;;;16.08;100.00
62150;BME280;48134;53.586;10.610;2023-09-30T11:39:45;101805.69;;;16.26;100.00
62150;BME280;48134;53.586;10.610;2023-09-30T11:42:15;101797.38;;;16.31;100.00
62150;BME280;48134;53.586;10.610;2023-09-30T11:44:44;101797.34;;;16.37;100.00
62150;BME280;48134;53.586;10.610;2023-09-30T11:47:13;101803.25;;;16.49;100.00
62150;BME280;48134;53.586;10.610;2023-09-30T11:49:43;101797.88;;;16.63;100.00
62150;BME280;48134;53.586;10.610;2023-09-30T11:52:12;101801.94;;;16.41;100.00
62150;BME280;48134;53.586;10.610;2023-09-30T11:54:43;101806.94;;;16.39;100.00
62150;BME280;48134;53.586;10.610;2023-09-30T11:57:14;101814.78;;;16.22;100.00
62150;BME280;48134;53.586;10.610;2023-09-30T11:59:44;101817.06;;;16.14;100.00
62150;BME280;48134;53.586;10.610;2023-09-30T12:02:17;101811.81;;;16.18;100.00
62150;BME280;48134;53.586;10.610;2023-09-30T12:04:51;101815.59;;;16.22;100.00
62150;BME280;48134;53.586;10.610;2023-09-30T12:07:25;101810.31;;;16.31;100.00
62150;BME280;48134;53.586;10.610;2023-09-30T12:09:58;101802.19;;;16.45;100.00
62150;BME280;48134;53.586;10.610;2023-09-30T12:12:32;101806.81;;;16.74;100.00
62150;BME280;48134;53.586;10.610;2023-09-30T12:15:01;101794.22;;;16.67;100.00
62150;BME280;48134;53.586;10.610;2023-09-30T12:17:30;101801.66;;;16.86;100.00
62150;BME280;48134;53.586;10.610;2023-09-30T12:20:04;101790.31;;;16.74;100.00
62150;BME280;48134;53.586;10.610;2023-09-30T12:22:38;101791.78;;;16.66;100.00
62150;BME280;48134;53.586;10.610;2023-09-30T12:25:11;101788.72;;;16.67;100.00
62150;BME280;48134;53.586;10.610;2023-09-30T12:27:46;101787.03;;;16.72;100.00
62150;BME280;48134;53.586;10.610;2023-09-30T12:30:19;101781.44;;;16.58;100.00
62150;BME280;48134;53.586;10.610;2023-09-30T12:32:52;101780.47;;;16.67;100.00
62150;BME280;48134;53.586;10.610;2023-09-30T12:35:27;101779.88;;;16.71;100.00
62150;BME280;48134;53.586;10.610;2023-09-30T12:38:00;101773.72;;;16.79;100.00
62150;BME280;48134;53.586;10.610;2023-09-30T12:40:33;101781.78;;;16.94;100.00
62150;BME280;48134;53.586;10.610;2023-09-30T12:43:08;101787.84;;;16.96;100.00
62150;BME280;48134;53.586;10.610;2023-09-30T12:45:42;101784.72;;;16.79;100.00
62150;BME280;48134;53.586;10.610;2023-09-30T12:48:10;101775.81;;;16.87;100.00
62150;BME280;48134;53.586;10.610;2023-09-30T12:50:43;101773.66;;;16.84;100.00
62150;BME280;48134;53.586;10.610;2023-09-30T12:53:13;101760.34;;;16.96;100.00
62150;BME280;48134;53.586;10.610;2023-09-30T12:55:46;101774.97;;;17.11;100.00
62150;BME280;48134;53.586;10.610;2023-09-30T12:58:16;101767.00;;;17.09;100.00